sensor_id;sensor_type;location;lat;lon;timestamp;pressure;altitude;pressure_sealevel;temperature;humidity
65997;BME280;52765;52.258;21.052;2023-02-19T00:00:59;100063.63;;;3.21;100.00
65997;BME280;52765;52.258;21.052;2023-02-19T00:03:26;100061.47;;;3.26;100.00
65997;BME280;52765;52.258;21.052;2023-02-19T00:05:52;100055.28;;;3.26;100.00
65997;BME280;52765;52.258;21.052;2023-02-19T00:08:17;100047.69;;;3.32;100.00
65997;BME280;52765;52.258;21.052;2023-02-19T00:10:42;100045.75;;;3.34;100.00
65997;BME280;52765;52.258;21.052;2023-02-19T00:13:08;100044.06;;;3.33;100.00
65997;BME280;52765;52.258;21.052;2023-02-19T00:15:33;100053.63;;;3.36;99.28
65997;BME280;52765;52.258;21.052;2023-02-19T00:17:59;100057.63;;;3.30;99.81
65997;BME280;52765;52.258;21.052;2023-02-19T00:20:25;100060.88;;;3.34;98.90
65997;BME280;52765;52.258;21.052;2023-02-19T00:22:50;100046.84;;;3.32;98.80
65997;BME280;52765;52.258;21.052;2023-02-19T00:25:16;100047.69;;;3.32;96.97
65997;BME280;52765;52.258;21.052;2023-02-19T00:27:41;100054.72;;;3.33;98.85
65997;BME280;52765;52.258;21.052;2023-02-19T00:30:07;100047.91;;;3.29;96.98
65997;BME280;52765;52.258;21.052;2023-02-19T00:32:33;100041.88;;;3.27;97.68
65997;BME280;52765;52.258;21.052;2023-02-19T00:34:58;100043.47;;;3.30;97.55
65997;BME280;52765;52.258;21.052;2023-02-19T00:37:24;100037.38;;;3.28;96.61
65997;BME280;52765;52.258;21.052;2023-02-19T00:39:49;100031.59;;;3.34;96.49
65997;BME280;52765;52.258;21.052;2023-02-19T00:42:15;100027.38;;;3.43;95.82
65997;BME280;52765;52.258;21.052;2023-02-19T00:44:40;100034.06;;;3.48;95.56
65997;BME280;52765;52.258;21.052;2023-02-19T00:47:06;100031.88;;;3.54;95.76
65997;BME280;52765;52.258;21.052;2023-02-19T00:49:31;100038.03;;;3.54;94.42
65997;BME280;52765;52.258;21.052;2023-02-19T00:51:57;100034.16;;;3.47;93.42
65997;BME280;52765;52.258;21.052;2023-02-19T00:54:22;100034.06;;;3.48;94.30
65997;BME280;52765;52.258;21.052;2023-02-19T00:56:49;100034.78;;;3.50;94.69
65997;BME280;52765;52.258;21.052;2023-02-19T00:59:14;100033.94;;;3.50;94.55
65997;BME280;52765;52.258;21.052;2023-02-19T01:01:41;100036.69;;;3.37;94.52
65997;BME280;52765;52.258;21.052;2023-02-19T01:04:09;100050.50;;;3.42;95.47
65997;BME280;52765;52.258;21.052;2023-02-19T01:06:35;100044.94;;;3.45;95.50
65997;BME280;52765;52.258;21.052;2023-02-19T01:09:02;100041.78;;;3.40;95.86
65997;BME280;52765;52.258;21.052;2023-02-19T01:11:28;100037.66;;;3.47;95.00
65997;BME280;52765;52.258;21.052;2023-02-19T01:14:00;100034.06;;;3.48;95.19
65997;BME280;52765;52.258;21.052;2023-02-19T01:16:26;100037.56;;;3.49;93.84
65997;BME280;52765;52.258;21.052;2023-02-19T01:18:52;100037.31;;;3.41;94.63
65997;BME280;52765;52.258;21.052;2023-02-19T01:21:21;100033.06;;;3.49;94.77
65997;BME280;52765;52.258;21.052;2023-02-19T01:23:48;100030.41;;;3.49;93.95
65997;BME280;52765;52.258;21.052;2023-02-19T01:26:17;100029.78;;;3.46;94.33
65997;BME280;52765;52.258;21.052;2023-02-19T01:28:44;100033.56;;;3.43;93.86
65997;BME280;52765;52.258;21.052;2023-02-19T01:31:12;100026.41;;;3.44;93.44
65997;BME280;52765;52.258;21.052;2023-02-19T01:33:38;100021.94;;;3.44;93.57
65997;BME280;52765;52.258;21.052;2023-02-19T01:36:04;100025.19;;;3.48;94.29
65997;BME280;52765;52.258;21.052;2023-02-19T01:38:30;100025.81;;;3.51;93.70
65997;BME280;52765;52.258;21.052;2023-02-19T01:40:57;100035.50;;;3.52;93.11
65997;BME280;52765;52.258;21.052;2023-02-19T01:43:23;100036.22;;;3.43;93.93
65997;BME280;52765;52.258;21.052;2023-02-19T01:45:49;100035.84;;;3.37;94.29
65997;BME280;52765;52.258;21.052;2023-02-19T01:48:36;100034.75;;;3.39;94.29
65997;BME280;52765;52.258;21.052;2023-02-19T01:51:08;100039.25;;;3.39;94.73
65997;BME280;52765;52.258;21.052;2023-02-19T01:53:41;100032.81;;;3.41;94.44
65997;BME280;52765;52.258;21.052;2023-02-19T01:56:08;100035.72;;;3.49;94.55
65997;BME280;52765;52.258;21.052;2023-02-19T01:58:34;100029.44;;;3.50;94.47
65997;BME280;52765;52.258;21.052;2023-02-19T02:01:03;100027.25;;;3.44;94.52
65997;BME280;52765;52.258;21.052;2023-02-19T02:03:30;100024.81;;;3.41;94.44
65997;BME280;52765;52.258;21.052;2023-02-19T02:06:03;100023.16;;;3.40;94.15
65997;BME280;52765;52.258;21.052;2023-02-19T02:08:30;100024.22;;;3.38;94.38
65997;BME280;52765;52.258;21.052;2023-02-19T02:11:16;100037.19;;;3.42;95.10
65997;BME280;52765;52.258;21.052;2023-02-19T02:13:42;100031.38;;;3.48;94.48
65997;BME280;52765;52.258;21.052;2023-02-19T02:16:24;100035.97;;;3.46;94.44
65997;BME280;52765;52.258;21.052;2023-02-19T02:19:55;100039.47;;;3.36;95.13
65997;BME280;52765;52.258;21.052;2023-02-19T02:22:03;100022.28;;;3.28;95.66
65997;BME280;52765;52.258;21.052;2023-02-19T02:25:01;100026.28;;;3.34;95.94
65997;BME280;52765;52.258;21.052;2023-02-19T02:33:13;100028.81;;;3.36;96.24
65997;BME280;52765;52.258;21.052;2023-02-19T02:36:03;100031.03;;;3.42;96.29
65997;BME280;52765;52.258;21.052;2023-02-19T02:38:32;100046.13;;;3.30;98.07
65997;BME280;52765;52.258;21.052;2023-02-19T02:40:59;100049.97;;;3.26;98.53
65997;BME280;52765;52.258;21.052;2023-02-19T02:43:26;100041.25;;;3.24;99.85
65997;BME280;52765;52.258;21.052;2023-02-19T02:45:51;100045.00;;;3.21;99.90
65997;BME280;52765;52.258;21.052;2023-02-19T02:53:52;100044.19;;;3.32;100.00
65997;BME280;52765;52.258;21.052;2023-02-19T02:56:39;100043.34;;;3.31;100.00
65997;BME280;52765;52.258;21.052;2023-02-19T02:59:09;100036.31;;;3.30;100.00
65997;BME280;52765;52.258;21.052;2023-02-19T03:04:32;100035.56;;;3.17;100.00
65997;BME280;52765;52.258;21.052;2023-02-19T03:07:04;100039.19;;;3.16;100.00
65997;BME280;52765;52.258;21.052;2023-02-19T03:09:36;100030.47;;;3.14;100.00
65997;BME280;52765;52.258;21.052;2023-02-19T03:12:09;100033.75;;;2.82;100.00
65997;BME280;52765;52.258;21.052;2023-02-19T03:15:00;100022.53;;;2.90;100.00
65997;BME280;52765;52.258;21.052;2023-02-19T03:17:50;100027.50;;;2.94;100.00
65997;BME280;52765;52.258;21.052;2023-02-19T03:20:39;100033.97;;;3.03;100.00
65997;BME280;52765;52.258;21.052;2023-02-19T03:23:08;100033.19;;;3.01;100.00
65997;BME280;52765;52.258;21.052;2023-02-19T03:25:35;100029.13;;;3.08;100.00
65997;BME280;52765;52.258;21.052;2023-02-19T03:28:22;100035.63;;;3.04;100.00
65997;BME280;52765;52.258;21.052;2023-02-19T03:31:11;100038.13;;;2.94;100.00
65997;BME280;52765;52.258;21.052;2023-02-19T03:33:40;100046.72;;;2.98;100.00
65997;BME280;52765;52.258;21.052;2023-02-19T03:36:09;100041.16;;;2.90;100.00
65997;BME280;52765;52.258;21.052;2023-02-19T03:39:04;100036.31;;;2.84;100.00
65997;BME280;52765;52.258;21.052;2023-02-19T03:41:35;100040.63;;;2.85;100.00
65997;BME280;52765;52.258;21.052;2023-02-19T03:44:22;100034.44;;;2.73;100.00
65997;BME280;52765;52.258;21.052;2023-02-19T03:49:41;100028.03;;;2.75;100.00
65997;BME280;52765;52.258;21.052;2023-02-19T03:55:23;100023.59;;;2.87;100.00
65997;BME280;52765;52.258;21.052;2023-02-19T04:00:43;100024.16;;;2.80;100.00
65997;BME280;52765;52.258;21.052;2023-02-19T04:05:52;100017.97;;;2.68;100.00
65997;BME280;52765;52.258;21.052;2023-02-19T04:08:20;100011.53;;;2.59;100.00
65997;BME280;52765;52.258;21.052;2023-02-19T04:10:49;100014.41;;;2.56;100.00
65997;BME280;52765;52.258;21.052;2023-02-19T04:13:19;100008.25;;;2.55;100.00
65997;BME280;52765;52.258;21.052;2023-02-19T04:15:49;100020.06;;;2.51;100.00
65997;BME280;52765;52.258;21.052;2023-02-19T04:18:17;100019.00;;;2.54;100.00
65997;BME280;52765;52.258;21.052;2023-02-19T04:20:46;100006.44;;;2.56;100.00
65997;BME280;52765;52.258;21.052;2023-02-19T04:23:14;100008.34;;;2.54;100.00
65997;BME280;52765;52.258;21.052;2023-02-19T04:25:45;100000.72;;;2.49;100.00
65997;BME280;52765;52.258;21.052;2023-02-19T04:28:13;99997.22;;;2.49;100.00
65997;BME280;52765;52.258;21.052;2023-02-19T04:30:39;99992.34;;;2.43;100.00
65997;BME280;52765;52.258;21.052;2023-02-19T04:33:04;99994.06;;;2.44;100.00
65997;BME280;52765;52.258;21.052;2023-02-19T04:35:30;99992.13;;;2.46;100.00
65997;BME280;52765;52.258;21.052;2023-02-19T04:37:55;99982.00;;;2.51;100.00
65997;BME280;52765;52.258;21.052;2023-02-19T04:40:21;99989.34;;;2.47;100.00
65997;BME280;52765;52.258;21.052;2023-02-19T04:42:46;99987.75;;;2.45;100.00
65997;BME280;52765;52.258;21.052;2023-02-19T04:45:12;99987.66;;;2.46;100.00
65997;BME280;52765;52.258;21.052;2023-02-19T04:47:37;99981.94;;;2.39;100.00
65997;BME280;52765;52.258;21.052;2023-02-19T04:50:03;99983.53;;;2.42;100.00
65997;BME280;52765;52.258;21.052;2023-02-19T04:52:28;99993.56;;;2.50;100.00
65997;BME280;52765;52.258;21.052;2023-02-19T04:54:54;99993.34;;;2.53;100.00
65997;BME280;52765;52.258;21.052;2023-02-19T04:57:19;100013.19;;;2.49;100.00
65997;BME280;52765;52.258;21.052;2023-02-19T04:59:45;99989.91;;;2.39;100.00
65997;BME280;52765;52.258;21.052;2023-02-19T05:02:11;99995.00;;;2.43;100.00
65997;BME280;52765;52.258;21.052;2023-02-19T05:04:36;99980.53;;;2.47;100.00
65997;BME280;52765;52.258;21.052;2023-02-19T05:07:02;99984.03;;;2.47;100.00
65997;BME280;52765;52.258;21.052;2023-02-19T05:09:27;99985.97;;;2.45;100.00
65997;BME280;52765;52.258;21.052;2023-02-19T05:11:53;99980.69;;;2.32;100.00
65997;BME280;52765;52.258;21.052;2023-02-19T05:14:18;99981.53;;;2.33;100.00
65997;BME280;52765;52.258;21.052;2023-02-19T05:16:44;99991.56;;;2.29;100.00
65997;BME280;52765;52.258;21.052;2023-02-19T05:19:12;99992.66;;;2.27;100.00
65997;BME280;52765;52.258;21.052;2023-02-19T05:21:38;99978.47;;;2.26;100.00
65997;BME280;52765;52.258;21.052;2023-02-19T05:24:06;99977.31;;;2.30;100.00
65997;BME280;52765;52.258;21.052;2023-02-19T05:26:32;99975.81;;;2.26;100.00
65997;BME280;52765;52.258;21.052;2023-02-19T05:28:58;99991.56;;;2.29;100.00
65997;BME280;52765;52.258;21.052;2023-02-19T05:31:24;99982.13;;;2.25;100.00
65997;BME280;52765;52.258;21.052;2023-02-19T05:33:49;99980.91;;;2.29;100.00
65997;BME280;52765;52.258;21.052;2023-02-19T05:36:18;99979.97;;;2.30;100.00
65997;BME280;52765;52.258;21.052;2023-02-19T05:38:44;99977.94;;;2.34;100.00
65997;BME280;52765;52.258;21.052;2023-02-19T05:41:20;99968.25;;;2.33;100.00
65997;BME280;52765;52.258;21.052;2023-02-19T05:43:47;99963.00;;;2.20;100.00
65997;BME280;52765;52.258;21.052;2023-02-19T05:46:15;99962.13;;;2.19;100.00
65997;BME280;52765;52.258;21.052;2023-02-19T05:48:41;99964.34;;;2.26;100.00
65997;BME280;52765;52.258;21.052;2023-02-19T05:51:10;99971.88;;;2.32;100.00
65997;BME280;52765;52.258;21.052;2023-02-19T05:53:35;99958.81;;;2.29;100.00
65997;BME280;52765;52.258;21.052;2023-02-19T05:56:01;99965.38;;;2.36;100.00
65997;BME280;52765;52.258;21.052;2023-02-19T05:58:27;99966.56;;;2.32;100.00
65997;BME280;52765;52.258;21.052;2023-02-19T06:00:53;99971.66;;;2.35;100.00
65997;BME280;52765;52.258;21.052;2023-02-19T06:03:19;99962.38;;;2.40;100.00
65997;BME280;52765;52.258;21.052;2023-02-19T06:05:45;99973.78;;;2.54;100.00
65997;BME280;52765;52.258;21.052;2023-02-19T06:08:14;99969.47;;;2.64;100.00
65997;BME280;52765;52.258;21.052;2023-02-19T06:10:40;99965.00;;;2.65;100.00
65997;BME280;52765;52.258;21.052;2023-02-19T06:13:08;99969.69;;;2.61;100.00
65997;BME280;52765;52.258;21.052;2023-02-19T06:15:34;99971.19;;;2.65;100.00
65997;BME280;52765;52.258;21.052;2023-02-19T06:18:00;99957.88;;;2.65;100.00
65997;BME280;52765;52.258;21.052;2023-02-19T06:20:26;99967.53;;;2.66;100.00
65997;BME280;52765;52.258;21.052;2023-02-19T06:22:52;99976.03;;;2.71;100.00
65997;BME280;52765;52.258;21.052;2023-02-19T06:25:18;99980.50;;;2.71;100.00
65997;BME280;52765;52.258;21.052;2023-02-19T06:27:43;99985.38;;;2.77;100.00
65997;BME280;52765;52.258;21.052;2023-02-19T06:30:09;99978.44;;;2.74;100.00
65997;BME280;52765;52.258;21.052;2023-02-19T06:32:35;99991.03;;;2.72;100.00
65997;BME280;52765;52.258;21.052;2023-02-19T06:35:01;99984.28;;;2.80;100.00
65997;BME280;52765;52.258;21.052;2023-02-19T06:37:27;99984.97;;;2.70;100.00
65997;BME280;52765;52.258;21.052;2023-02-19T06:39:53;99982.47;;;2.80;100.00
65997;BME280;52765;52.258;21.052;2023-02-19T06:42:18;99984.03;;;2.83;100.00
65997;BME280;52765;52.258;21.052;2023-02-19T06:44:44;99982.09;;;2.85;99.73
65997;BME280;52765;52.258;21.052;2023-02-19T06:47:09;99971.13;;;2.89;99.72
65997;BME280;52765;52.258;21.052;2023-02-19T06:49:35;99977.31;;;2.90;99.69
65997;BME280;52765;52.258;21.052;2023-02-19T06:52:00;99970.56;;;2.97;99.35
65997;BME280;52765;52.258;21.052;2023-02-19T06:54:27;99973.09;;;2.99;99.36
65997;BME280;52765;52.258;21.052;2023-02-19T06:56:53;99982.25;;;2.94;99.05
65997;BME280;52765;52.258;21.052;2023-02-19T06:59:21;99978.66;;;2.95;99.43
65997;BME280;52765;52.258;21.052;2023-02-19T07:01:46;99978.31;;;3.00;99.11
65997;BME280;52765;52.258;21.052;2023-02-19T07:04:12;99983.59;;;2.89;99.75
65997;BME280;52765;52.258;21.052;2023-02-19T07:06:38;99995.19;;;2.88;100.00
65997;BME280;52765;52.258;21.052;2023-02-19T07:09:05;99992.53;;;2.88;99.09
65997;BME280;52765;52.258;21.052;2023-02-19T07:11:32;100003.06;;;2.89;100.00
65997;BME280;52765;52.258;21.052;2023-02-19T07:14:00;100005.72;;;2.89;100.00
65997;BME280;52765;52.258;21.052;2023-02-19T07:16:27;100000.50;;;2.88;100.00
65997;BME280;52765;52.258;21.052;2023-02-19T07:18:55;100002.22;;;2.89;100.00
65997;BME280;52765;52.258;21.052;2023-02-19T07:21:21;100003.66;;;2.82;100.00
65997;BME280;52765;52.258;21.052;2023-02-19T07:23:47;100003.75;;;2.80;100.00
65997;BME280;52765;52.258;21.052;2023-02-19T07:26:14;100004.38;;;2.84;99.93
65997;BME280;52765;52.258;21.052;2023-02-19T07:28:42;100004.41;;;2.95;99.73
65997;BME280;52765;52.258;21.052;2023-02-19T07:31:08;100001.25;;;3.01;99.70
65997;BME280;52765;52.258;21.052;2023-02-19T07:33:33;99994.84;;;2.92;99.38
65997;BME280;52765;52.258;21.052;2023-02-19T07:35:58;99995.44;;;2.96;100.00
65997;BME280;52765;52.258;21.052;2023-02-19T07:38:24;100006.25;;;3.06;99.46
65997;BME280;52765;52.258;21.052;2023-02-19T07:43:17;99999.00;;;3.19;97.43
65997;BME280;52765;52.258;21.052;2023-02-19T07:45:42;100012.69;;;3.26;97.53
65997;BME280;52765;52.258;21.052;2023-02-19T07:48:08;100012.97;;;3.34;97.29
65997;BME280;52765;52.258;21.052;2023-02-19T07:50:33;100012.88;;;3.47;96.96
65997;BME280;52765;52.258;21.052;2023-02-19T07:52:59;99999.19;;;3.51;96.81
65997;BME280;52765;52.258;21.052;2023-02-19T07:55:24;100007.28;;;3.61;95.96
65997;BME280;52765;52.258;21.052;2023-02-19T07:57:49;100017.22;;;3.70;95.72
65997;BME280;52765;52.258;21.052;2023-02-19T08:00:15;100014.22;;;3.86;95.21
65997;BME280;52765;52.258;21.052;2023-02-19T08:02:40;100007.19;;;3.97;92.08
65997;BME280;52765;52.258;21.052;2023-02-19T08:05:32;100011.66;;;3.85;92.85
65997;BME280;52765;52.258;21.052;2023-02-19T08:07:58;100020.38;;;3.76;92.20
65997;BME280;52765;52.258;21.052;2023-02-19T08:10:25;100020.47;;;3.40;95.15
65997;BME280;52765;52.258;21.052;2023-02-19T08:13:14;100030.88;;;3.32;95.18
65997;BME280;52765;52.258;21.052;2023-02-19T08:18:30;100041.91;;;3.39;96.17
65997;BME280;52765;52.258;21.052;2023-02-19T08:20:57;100035.47;;;3.30;95.18
65997;BME280;52765;52.258;21.052;2023-02-19T08:23:23;100047.22;;;2.92;97.21
65997;BME280;52765;52.258;21.052;2023-02-19T08:25:50;100048.41;;;2.88;97.51
65997;BME280;52765;52.258;21.052;2023-02-19T08:28:16;100044.63;;;2.55;99.60
65997;BME280;52765;52.258;21.052;2023-02-19T08:30:43;100060.00;;;2.63;98.90
65997;BME280;52765;52.258;21.052;2023-02-19T08:33:11;100050.19;;;2.52;100.00
65997;BME280;52765;52.258;21.052;2023-02-19T08:35:36;100060.19;;;2.48;100.00
65997;BME280;52765;52.258;21.052;2023-02-19T08:38:03;100060.94;;;2.50;100.00
65997;BME280;52765;52.258;21.052;2023-02-19T08:40:29;100049.78;;;2.45;99.89
65997;BME280;52765;52.258;21.052;2023-02-19T08:42:55;100062.44;;;2.42;100.00
65997;BME280;52765;52.258;21.052;2023-02-19T08:45:20;100054.47;;;2.66;99.76
65997;BME280;52765;52.258;21.052;2023-02-19T08:47:48;100055.09;;;2.93;99.27
65997;BME280;52765;52.258;21.052;2023-02-19T08:50:16;100048.59;;;3.09;96.88
65997;BME280;52765;52.258;21.052;2023-02-19T08:52:44;100058.97;;;3.01;96.83
65997;BME280;52765;52.258;21.052;2023-02-19T08:55:12;100050.78;;;2.80;96.82
65997;BME280;52765;52.258;21.052;2023-02-19T08:57:37;100050.44;;;2.84;97.69
65997;BME280;52765;52.258;21.052;2023-02-19T09:00:05;100042.28;;;2.74;97.47
65997;BME280;52765;52.258;21.052;2023-02-19T09:02:34;100053.38;;;2.92;97.58
65997;BME280;52765;52.258;21.052;2023-02-19T09:05:00;100041.13;;;2.78;98.12
65997;BME280;52765;52.258;21.052;2023-02-19T09:07:26;100027.59;;;2.93;96.56
65997;BME280;52765;52.258;21.052;2023-02-19T09:09:51;100051.41;;;2.83;97.16
65997;BME280;52765;52.258;21.052;2023-02-19T09:12:18;100039.34;;;2.90;97.56
65997;BME280;52765;52.258;21.052;2023-02-19T09:14:45;100038.50;;;2.90;96.41
65997;BME280;52765;52.258;21.052;2023-02-19T09:17:13;100052.09;;;3.09;95.26
65997;BME280;52765;52.258;21.052;2023-02-19T09:19:38;100022.97;;;3.19;95.37
65997;BME280;52765;52.258;21.052;2023-02-19T09:22:09;100050.25;;;3.34;93.13
65997;BME280;52765;52.258;21.052;2023-02-19T09:24:35;100039.13;;;3.40;93.27
65997;BME280;52765;52.258;21.052;2023-02-19T09:27:00;100036.34;;;3.42;92.99
65997;BME280;52765;52.258;21.052;2023-02-19T09:29:27;100054.13;;;3.30;93.46
65997;BME280;52765;52.258;21.052;2023-02-19T09:32:00;100050.69;;;3.17;94.39
65997;BME280;52765;52.258;21.052;2023-02-19T09:34:27;100053.19;;;3.07;94.05
65997;BME280;52765;52.258;21.052;2023-02-19T09:36:53;100055.75;;;3.20;93.16
65997;BME280;52765;52.258;21.052;2023-02-19T09:39:21;100047.56;;;3.34;92.37
65997;BME280;52765;52.258;21.052;2023-02-19T09:42:03;100057.03;;;3.49;91.03
65997;BME280;52765;52.258;21.052;2023-02-19T09:44:35;100044.09;;;3.45;91.34
65997;BME280;52765;52.258;21.052;2023-02-19T09:47:08;100050.66;;;3.63;90.15
65997;BME280;52765;52.258;21.052;2023-02-19T09:49:41;100049.56;;;3.88;89.31
65997;BME280;52765;52.258;21.052;2023-02-19T09:55:16;100069.41;;;3.84;88.18
65997;BME280;52765;52.258;21.052;2023-02-19T09:57:43;100051.38;;;3.99;85.97
65997;BME280;52765;52.258;21.052;2023-02-19T10:02:37;100059.59;;;4.07;84.43
65997;BME280;52765;52.258;21.052;2023-02-19T10:05:10;100054.59;;;4.48;82.63
65997;BME280;52765;52.258;21.052;2023-02-19T10:07:44;100035.25;;;4.67;79.44
65997;BME280;52765;52.258;21.052;2023-02-19T10:12:41;100024.44;;;4.69;78.50
65997;BME280;52765;52.258;21.052;2023-02-19T10:15:17;100067.19;;;4.46;80.29
65997;BME280;52765;52.258;21.052;2023-02-19T10:17:44;100055.81;;;4.33;80.71
65997;BME280;52765;52.258;21.052;2023-02-19T10:20:19;100056.16;;;4.39;82.73
65997;BME280;52765;52.258;21.052;2023-02-19T10:23:03;100056.56;;;4.35;81.70
65997;BME280;52765;52.258;21.052;2023-02-19T10:25:31;100058.59;;;4.42;82.20
65997;BME280;52765;52.258;21.052;2023-02-19T10:27:57;100070.13;;;4.43;79.74
65997;BME280;52765;52.258;21.052;2023-02-19T10:30:28;100070.41;;;4.17;81.50
65997;BME280;52765;52.258;21.052;2023-02-19T10:33:08;100063.72;;;4.23;80.79
65997;BME280;52765;52.258;21.052;2023-02-19T10:35:36;100066.78;;;4.18;79.60
65997;BME280;52765;52.258;21.052;2023-02-19T10:38:17;100067.72;;;4.29;80.57
65997;BME280;52765;52.258;21.052;2023-02-19T10:40:50;100066.25;;;4.24;79.74
65997;BME280;52765;52.258;21.052;2023-02-19T10:43:25;100079.09;;;4.42;78.09
65997;BME280;52765;52.258;21.052;2023-02-19T10:45:59;100070.59;;;4.48;76.58
65997;BME280;52765;52.258;21.052;2023-02-19T10:48:56;100064.25;;;4.60;75.38
65997;BME280;52765;52.258;21.052;2023-02-19T10:51:37;100071.41;;;4.60;75.55
65997;BME280;52765;52.258;21.052;2023-02-19T10:54:30;100072.13;;;4.73;74.16
65997;BME280;52765;52.258;21.052;2023-02-19T10:59:52;100096.34;;;4.81;73.81
65997;BME280;52765;52.258;21.052;2023-02-19T11:02:20;100079.03;;;4.64;74.95
65997;BME280;52765;52.258;21.052;2023-02-19T11:05:15;100102.06;;;4.77;74.85
65997;BME280;52765;52.258;21.052;2023-02-19T11:07:53;100083.66;;;4.62;76.44
65997;BME280;52765;52.258;21.052;2023-02-19T11:12:56;100083.09;;;4.91;75.82
65997;BME280;52765;52.258;21.052;2023-02-19T11:18:20;100096.06;;;4.41;75.83
65997;BME280;52765;52.258;21.052;2023-02-19T11:20:58;100084.06;;;4.47;76.04
65997;BME280;52765;52.258;21.052;2023-02-19T11:23:28;100090.66;;;4.75;75.37
65997;BME280;52765;52.258;21.052;2023-02-19T11:25:56;100087.66;;;4.68;75.29
65997;BME280;52765;52.258;21.052;2023-02-19T11:28:32;100109.13;;;4.67;73.87
65997;BME280;52765;52.258;21.052;2023-02-19T11:34:23;100088.66;;;4.44;75.19
65997;BME280;52765;52.258;21.052;2023-02-19T11:39:34;100091.53;;;4.64;75.88
65997;BME280;52765;52.258;21.052;2023-02-19T11:50:29;100096.88;;;4.53;73.62
65997;BME280;52765;52.258;21.052;2023-02-19T12:01:37;100107.19;;;4.57;74.50
65997;BME280;52765;52.258;21.052;2023-02-19T12:04:14;100108.19;;;4.56;74.73
65997;BME280;52765;52.258;21.052;2023-02-19T12:12:37;100107.06;;;4.70;73.86
65997;BME280;52765;52.258;21.052;2023-02-19T12:21:10;100133.63;;;5.57;68.35
65997;BME280;52765;52.258;21.052;2023-02-19T12:24:40;100123.81;;;5.05;69.83
65997;BME280;52765;52.258;21.052;2023-02-19T12:32:16;100134.34;;;4.62;73.44
65997;BME280;52765;52.258;21.052;2023-02-19T12:37:49;100131.25;;;4.35;77.39
65997;BME280;52765;52.258;21.052;2023-02-19T12:40:29;100142.75;;;4.47;77.15
65997;BME280;52765;52.258;21.052;2023-02-19T12:43:12;100142.50;;;4.27;75.12
65997;BME280;52765;52.258;21.052;2023-02-19T12:45:44;100150.25;;;4.19;76.29
65997;BME280;52765;52.258;21.052;2023-02-19T12:50:42;100144.78;;;4.09;75.77
65997;BME280;52765;52.258;21.052;2023-02-19T12:56:13;100153.13;;;4.72;74.08
65997;BME280;52765;52.258;21.052;2023-02-19T12:58:47;100147.88;;;4.93;72.64
65997;BME280;52765;52.258;21.052;2023-02-19T13:01:18;100142.50;;;5.05;71.07
65997;BME280;52765;52.258;21.052;2023-02-19T13:06:42;100153.38;;;5.45;67.58
65997;BME280;52765;52.258;21.052;2023-02-19T13:09:33;100155.69;;;5.50;66.53
65997;BME280;52765;52.258;21.052;2023-02-19T13:12:25;100167.06;;;5.52;66.26
65997;BME280;52765;52.258;21.052;2023-02-19T13:15:15;100164.88;;;5.78;65.63
65997;BME280;52765;52.258;21.052;2023-02-19T13:17:46;100142.25;;;5.61;64.54
65997;BME280;52765;52.258;21.052;2023-02-19T13:20:34;100152.88;;;5.51;64.72
65997;BME280;52765;52.258;21.052;2023-02-19T13:23:17;100158.44;;;5.60;65.35
65997;BME280;52765;52.258;21.052;2023-02-19T13:37:17;100168.03;;;6.35;59.58
65997;BME280;52765;52.258;21.052;2023-02-19T13:39:52;100170.88;;;6.13;60.25
65997;BME280;52765;52.258;21.052;2023-02-19T13:42:27;100174.75;;;5.99;60.36
65997;BME280;52765;52.258;21.052;2023-02-19T13:44:56;100183.53;;;5.68;61.52
65997;BME280;52765;52.258;21.052;2023-02-19T13:50:17;100184.13;;;4.96;62.96
65997;BME280;52765;52.258;21.052;2023-02-19T13:52:43;100185.03;;;4.85;61.60
65997;BME280;52765;52.258;21.052;2023-02-19T14:01:02;100185.03;;;4.74;62.92
65997;BME280;52765;52.258;21.052;2023-02-19T14:03:54;100200.19;;;4.85;61.80
65997;BME280;52765;52.258;21.052;2023-02-19T14:14:49;100205.13;;;5.00;63.98
65997;BME280;52765;52.258;21.052;2023-02-19T14:17:38;100232.94;;;4.64;63.07
65997;BME280;52765;52.258;21.052;2023-02-19T14:25:35;100231.28;;;4.63;62.86
65997;BME280;52765;52.258;21.052;2023-02-19T14:33:38;100229.91;;;4.57;61.95
65997;BME280;52765;52.258;21.052;2023-02-19T14:36:26;100241.66;;;4.66;59.58
65997;BME280;52765;52.258;21.052;2023-02-19T14:38:54;100238.91;;;4.56;59.99
65997;BME280;52765;52.258;21.052;2023-02-19T14:41:21;100240.22;;;4.51;59.54
65997;BME280;52765;52.258;21.052;2023-02-19T14:43:49;100238.28;;;4.53;59.57
65997;BME280;52765;52.258;21.052;2023-02-19T14:49:13;100243.13;;;4.59;59.48
65997;BME280;52765;52.258;21.052;2023-02-19T14:51:42;100242.28;;;4.58;59.27
65997;BME280;52765;52.258;21.052;2023-02-19T14:54:17;100247.13;;;4.64;59.40
65997;BME280;52765;52.258;21.052;2023-02-19T14:56:47;100257.94;;;4.63;59.95
65997;BME280;52765;52.258;21.052;2023-02-19T15:01:44;100262.28;;;4.53;60.30
65997;BME280;52765;52.258;21.052;2023-02-19T15:04:21;100272.84;;;4.43;60.18
65997;BME280;52765;52.258;21.052;2023-02-19T15:06:48;100264.97;;;4.41;60.67
65997;BME280;52765;52.258;21.052;2023-02-19T15:09:15;100271.16;;;4.53;60.76
65997;BME280;52765;52.258;21.052;2023-02-19T15:11:41;100276.47;;;4.42;60.91
65997;BME280;52765;52.258;21.052;2023-02-19T15:14:16;100280.59;;;4.46;61.29
65997;BME280;52765;52.258;21.052;2023-02-19T15:16:43;100276.13;;;4.47;61.79
65997;BME280;52765;52.258;21.052;2023-02-19T15:19:11;100288.84;;;4.43;61.82
65997;BME280;52765;52.258;21.052;2023-02-19T15:21:41;100289.81;;;4.42;61.38
65997;BME280;52765;52.258;21.052;2023-02-19T15:24:10;100305.94;;;4.40;61.08
65997;BME280;52765;52.258;21.052;2023-02-19T15:26:39;100297.44;;;4.35;61.06